AirNav   BOSE ProFlight Aviation Headset
 
 1104 users online  

M90 William Robert Johnston Municipal Airport
Mendota, California, USA

GOING TO MENDOTA?


FAA INFORMATION EFFECTIVE 21 JUNE 2018

Location

FAA Identifier: M90
Lat/Long: 36-45-31.0000N / 120-22-17.0000W
36-45.516667N / 120-22.283333W
36.7586111 / -120.3713889
(estimated)
Elevation: 162 ft. / 49 m (estimated)
Variation: 15E (1985)
Time zone: UTC -7 (UTC -8 during Standard Time)
Zip code: 93640

Airport Operations

Airport use: Open to the public
Activation date: 08/1957
Control tower: no
ARTCC: OAKLAND CENTER
FSS: RANCHO MURIETA FLIGHT SERVICE STATION
NOTAMs facility: RIU (NOTAM-D service available)
Attendance: UNATNDD
Pattern altitude: 1162 ft. MSL
Wind indicator: yes
Segmented circle: yes

Airport Communications

CTAF: 122.9
WX ASOS at MAE (18 nm NE): 134.725 (559-674-1781)

Nearby radio navigation aids

VOR radial/distance  VOR name  Freq  Var
PXNr066/19.8PANOCHE VORTAC112.6016E
HYPr162/27.7EL NIDO VOR/DME114.2015E
CZQr239/27.8CLOVIS VORTAC112.9015E
ROMr005/(39.7)PRIEST VOR110.0016E

Airport Services

Parking: tiedowns

Runway Information

Runway 15/33

Dimensions: 3499 x 50 ft. / 1066 x 15 m
Surface: asphalt, in fair condition
Weight bearing capacity: 
Single wheel: 12.5
RUNWAY 15  RUNWAY 33
Latitude: 36-45.798333N36-45.251500N
Longitude: 120-22.404667W120-22.177167W
Gradient: 0.1%0.1%
Traffic pattern: leftright
Displaced threshold: no777 ft.
Markings: basic, in fair conditionbasic, in fair condition
Runway end identifier lights: nono
Obstructions: none17 ft. bldg, 423 ft. from runway, 190 ft. left of centerline, 13:1 slope to clear
APCH RATIO TO DSPLCD THR 50:1.

Airport Ownership and Management from official FAA records

Ownership: Publicly-owned
Owner: CITY OF MENDOTA
643 QUINCE ST
MENDOTA, CA 93640-2334
Phone 559-655-4298
Manager: JENNIFER LEKUMBERRY
643 QUINCE ST
MENDOTA, CA 93640-2334
Phone (559) 630-2849
CITY MANAGER X 106.

Airport Operational Statistics

Aircraft operations: avg 77/week *
50% transient general aviation
50% local general aviation
* for 12-month period ending 11 October 2017

Additional Remarks

ARPT CLSD NIGHTS.
FOR CD CTC NORCAL APCH AT 916-361-0516.
PARL TWY ROUGH/UNEVEN SFC; EXTSV ASPH RPR AND PATCHING.

Instrument Procedures

There are no published instrument procedures at M90.

Some nearby airports with instrument procedures:

F34 - Firebaugh Airport (8 nm NW)
KMAE - Madera Municipal Airport (18 nm NE)
KFCH - Fresno Chandler Executive Airport (27 nm E)
KLSN - Los Banos Municipal Airport (30 nm NW)
KFAT - Fresno Yosemite International Airport (31 nm E)
 
Loc | Ops | Rwys | IFR | FBO | Links
Com | Nav | Svcs | Stats | Notes

AirNav Hotels Sweepstakes
 
Area around M90 (William Robert Johnston Municipal Airport)
 
Road maps at: MapQuest Bing Google
 
Aerial photo
WARNING: Photo may not be current or correct
Aerial photo of M90 (William Robert Johnston Municipal Airport)
Do you have a better or more recent aerial photo of William Robert Johnston Municipal Airport that you would like to share? If so, please send us your photo.

 
Sectional chart

 
Airport distance calculator
Flying to William Robert Johnston Municipal Airport? Find the distance to fly.

From to M90

Sunrise and sunset
Times for 24-Jun-2018
 Local
(UTC-7)
 Zulu
(UTC)
Morning civil twilight05:1412:14
Sunrise05:4512:45
Sunset20:2303:23
Evening civil twilight20:5403:54

Current date and time
Zulu (UTC)  24-Jun-2018 17:05:55
Local (UTC-7)  24-Jun-2018 10:05:55
 
METAR
KMAE 
18nm NE 
241653Z AUTO 31009KT 10SM CLR 31/11 A2979 RMK AO2 SLP083 T03060106
KFCH 
27nm E 
241655Z AUTO VRB03KT 10SM CLR 29/13 A2978 RMK A01
KFAT 
32nm E 
241653Z VRB04KT 10SM FEW060 FEW080 SCT200 29/14 A2979 RMK AO2 SLP083 FU FEW060 T02940139
KMCE 
32nm N 
241653Z AUTO 30008KT 10SM CLR 28/12 A2978 RMK AO2 SLP082 T02830117
KNLC 
33nm SE 
241656Z AUTO 35004KT 10SM CLR 32/12 A2978 RMK AO2 SLP082 T03170117
TAF
KFAT 
32nm E 
241134Z 2412/2512 VRB04KT P6SM SKC FM242300 31010KT P6SM SKC FM250600 VRB04KT P6SM SKC
KMCE 
32nm N 
241134Z 2412/2512 VRB04KT P6SM SKC FM242000 32010KT P6SM SKC FM250300 VRB04KT P6SM SKC
KNLC 
33nm SE 
2415/2515 34009KT 9999 SKC QNH2968INS TEMPO 2500/2506 34015KT AUTOMATED SENSOR METWATCH 2415 TIL 2422 T38/2423Z T18/2512Z FS30020
KMER 
39nm N 
241134Z 2412/2512 VRB04KT P6SM SKC FM242000 33010KT P6SM SKC FM250300 VRB04KT P6SM SKC AMD NOT SKED
NOTAMs
Click for the latest NOTAMs
NOTAMs are issued by the DoD/FAA and will open in a separate window not controlled by AirNav.

 

 
 

Would you like to see your business listed on this page?

 If your business provides an interesting product or service to pilots, flight crews, aircraft, or users of the William Robert Johnston Municipal Airport, you should consider listing it here.  To start the listing process, click on the button below
 
Add a business
 

Other Pages about William Robert Johnston Municipal Airport

Update a link
 
Copyright © AirNav, LLC. All rights reserved. Privacy Policy  Contact